Time;durP1;ratioP1;P1;durP2;ratioP2;P2;SDS_P1;SDS_P2;PMS_P1;PMS_P2;Temp;Humidity;BMP_temperature;BMP_pressure;BME280_temperature;BME280_humidity;BME280_pressure;Samples;Min_cycle;Max_cycle;Signal;HPM_P1;HPM_P2
2022/02/10 00:06:38;;;;;;;31.68;17.05;;;;;;;-0.19;83.00;98710.87;1713231;82;21009;-81
2022/02/10 00:22:27;;;;;;;35.40;17.85;;;;;;;-0.35;82.43;98696.97;1706718;83;21049;-79
2022/02/10 00:35:36;;;;;;;33.60;18.45;;;;;;;-0.35;83.57;98691.36;1706302;83;21028;-80
2022/02/10 00:37:58;;;;;;;38.85;18.67;;;;;;;-0.29;83.18;98682.38;1708236;82;20976;-81
2022/02/10 00:40:34;;;;;;;33.50;18.32;;;;;;;-0.25;83.08;98678.56;1710074;83;20992;-80
2022/02/10 00:43:04;;;;;;;36.08;19.60;;;;;;;-0.18;83.08;98685.27;1706493;83;21023;-80
2022/02/10 00:45:34;;;;;;;40.95;19.23;;;;;;;-0.14;82.85;98686.22;1708652;83;20990;-80
2022/02/10 00:48:05;;;;;;;38.85;19.00;;;;;;;-0.08;82.78;98688.96;1711942;83;21054;-80
2022/02/10 00:50:35;;;;;;;36.13;19.00;;;;;;;0.01;83.16;98688.73;1706131;82;21430;-80
2022/02/10 00:53:09;;;;;;;39.33;19.87;;;;;;;0.04;82.83;98687.08;1694622;84;21075;-81
2022/02/10 00:55:35;;;;;;;39.58;20.27;;;;;;;0.08;83.01;98677.63;1711849;83;20985;-81
2022/02/10 00:58:05;;;;;;;40.20;19.92;;;;;;;0.09;82.65;98669.82;1711958;82;21095;-81
2022/02/10 01:24:27;;;;;;;38.70;20.25;;;;;;;0.22;82.30;98661.89;1698475;83;20981;-81
2022/02/10 01:30:25;;;;;;;35.60;17.75;;;;;;;0.41;82.17;98664.02;1699412;83;21028;-81
2022/02/10 01:32:55;;;;;;;37.13;17.98;;;;;;;0.47;82.20;98657.63;1699796;83;21092;-81
2022/02/10 01:35:23;;;;;;;33.15;17.75;;;;;;;0.51;82.34;98657.71;1698431;83;21423;-81
2022/02/10 01:37:49;;;;;;;33.38;17.82;;;;;;;0.53;82.39;98664.27;1697464;83;21505;-81
2022/02/10 01:40:29;;;;;;;36.85;19.00;;;;;;;0.47;82.93;98664.14;1700061;83;21013;-81
2022/02/10 02:04:22;;;;;;;34.75;17.25;;;;;;;0.71;82.14;98675.95;1710584;82;21071;-82
2022/02/10 02:06:52;;;;;;;36.38;17.62;;;;;;;0.75;82.27;98671.27;1716424;82;20993;-82
2022/02/10 02:09:21;;;;;;;38.87;18.40;;;;;;;0.74;82.06;98662.95;1715100;82;21007;-82
2022/02/10 02:11:55;;;;;;;33.50;17.77;;;;;;;0.77;81.91;98671.75;1714628;82;21016;-82
2022/02/10 02:14:24;;;;;;;;;;;;;;;0.81;81.83;98671.80;1722751;82;21028;-82
2022/02/10 02:16:55;;;;;;;30.68;15.80;;;;;;;0.83;81.78;98669.67;1715231;82;20137;-82
2022/02/10 02:19:23;;;;;;;38.48;17.27;;;;;;;0.88;81.75;98667.17;1719315;82;21060;-83
2022/02/10 02:21:50;;;;;;;33.73;16.20;;;;;;;0.91;81.65;98667.22;1714918;82;21044;-83
2022/02/10 02:24:22;;;;;;;32.58;16.35;;;;;;;0.92;81.70;98664.64;1713859;82;21174;-83
2022/02/10 02:26:52;;;;;;;32.73;16.25;;;;;;;0.95;81.41;98674.70;1712996;82;21446;-83
2022/02/10 02:29:28;;;;;;;32.58;16.62;;;;;;;0.92;81.97;98671.61;1713117;82;21047;-83
2022/02/10 02:31:54;;;;;;;31.15;17.10;;;;;;;0.90;81.62;98662.85;1714273;82;21017;-82
2022/02/10 02:34:50;;;;;;;31.40;16.77;;;;;;;0.90;81.39;98664.16;1716194;82;21076;-82
2022/02/10 03:04:50;;;;;;;36.85;17.65;;;;;;;0.36;83.38;98654.78;1695559;83;21037;-81
2022/02/10 03:07:29;;;;;;;35.08;17.73;;;;;;;0.33;82.96;98653.42;1697592;83;21024;-81
2022/02/10 03:09:53;;;;;;;30.00;14.58;;;;;;;0.31;82.91;98649.47;1698849;83;21475;-81
2022/02/10 03:12:11;;;;;;;29.25;16.30;;;;;;;0.27;82.72;98651.55;1697345;83;21474;-82
2022/02/10 03:14:45;;;;;;;36.42;18.45;;;;;;;0.19;82.72;98651.79;1698643;83;21049;-82
2022/02/10 03:22:18;;;;;;;37.42;18.67;;;;;;;0.01;82.62;98653.55;1699750;83;21072;-81
2022/02/10 04:03:06;;;;;;;34.70;16.70;;;;;;;-1.01;82.52;98642.32;1699011;83;21466;-81
2022/02/10 04:05:52;;;;;;;30.48;16.23;;;;;;;-1.08;82.64;98640.00;1696722;83;21439;-81
2022/02/10 04:08:17;;;;;;;32.45;16.25;;;;;;;-1.09;82.82;98636.91;1693713;83;21036;-80
2022/02/10 04:13:12;;;;;;;32.05;16.37;;;;;;;-1.13;83.21;98632.05;1695959;83;21008;-80
2022/02/10 04:20:54;;;;;;;33.20;17.85;;;;;;;-1.13;83.31;98636.39;1703491;83;20989;-81
2022/02/10 04:23:18;;;;;;;34.45;17.82;;;;;;;-1.11;83.22;98632.99;1698522;84;21076;-81
2022/02/10 04:25:51;;;;;;;32.42;16.80;;;;;;;-1.08;83.37;98624.39;1704965;84;21028;-81
2022/02/10 04:31:01;;;;;;;25.77;13.40;;;;;;;-1.01;84.29;98635.81;1687347;84;21405;-81
2022/02/10 04:42:45;;;;;;;21.65;12.28;;;;;;;-0.86;83.99;98632.76;1708403;84;21052;-81
2022/02/10 04:55:20;;;;;;;;;;;;;;;-0.69;85.75;98646.22;1699450;84;21036;-81
2022/02/10 05:16:29;;;;;;;31.07;15.48;;;;;;;-0.69;85.75;98639.71;1673219;85;21030;-81
2022/02/10 05:21:29;;;;;;;29.92;16.25;;;;;;;-0.84;85.25;98633.26;1689001;84;21059;-81
2022/02/10 05:23:57;;;;;;;31.82;16.87;;;;;;;-0.83;84.93;98641.52;1699995;84;21021;-81
2022/02/10 05:32:22;;;;;;;49.83;21.00;;;;;;;-0.92;84.92;98632.61;1653894;85;21082;-80
2022/02/10 05:34:10;;;;;;;43.90;19.75;;;;;;;-0.92;85.27;98634.77;1619304;88;21124;-80
2022/02/10 05:36:39;;;;;;;36.28;17.57;;;;;;;-0.95;86.54;98635.56;1638564;87;21089;-79
2022/02/10 05:41:56;;;;;;;38.00;17.45;;;;;;;-0.96;85.62;98619.91;1648495;86;22162;-82
2022/02/10 05:47:14;;;;;;;34.90;18.67;;;;;;;-0.91;85.83;98622.24;1648462;86;21022;-82
2022/02/10 05:49:50;;;;;;;34.30;18.05;;;;;;;-0.91;86.23;98635.66;1644750;87;21079;-82
2022/02/10 06:00:07;;;;;;;41.37;19.95;;;;;;;-1.11;86.47;98619.98;1675748;85;21029;-82
2022/02/10 06:02:44;;;;;;;39.78;20.37;;;;;;;-1.18;86.14;98621.94;1705422;84;21402;-78
2022/02/10 06:39:05;;;;;;;34.70;17.77;;;;;;;-1.24;86.37;98644.75;1687955;84;21012;-81
2022/02/10 06:42:45;;;;;;;36.85;17.80;;;;;;;-1.21;86.06;98635.74;1651855;87;21072;-81
2022/02/10 06:51:29;;;;;;;31.73;16.15;;;;;;;-1.13;86.30;98642.45;1655291;86;21056;-81
2022/02/10 07:42:48;;;;;;;26.97;15.83;;;;;;;-0.57;86.77;98638.73;1673196;86;21026;-81
2022/02/10 07:47:35;;;;;;;54.63;28.05;;;;;;;0.29;85.76;98629.43;1694997;84;21018;-82
2022/02/10 07:50:06;;;;;;;51.85;27.75;;;;;;;0.38;85.61;98629.63;1683432;85;21009;-82
2022/02/10 07:55:22;;;;;;;60.00;33.05;;;;;;;0.54;85.52;98622.13;1693774;84;21025;-81
2022/02/10 07:57:51;;;;;;;62.45;34.63;;;;;;;0.62;85.30;98629.25;1690390;84;21020;-81
2022/02/10 08:00:36;;;;;;;77.60;41.42;;;;;;;0.70;85.18;98622.03;1666842;85;21027;-81
2022/02/10 08:49:53;;;;;;;96.45;45.17;;;;;;;2.00;84.57;98602.92;1687301;84;21035;-81
2022/02/10 09:08:53;;;;;;;65.20;32.95;;;;;;;2.16;84.46;98614.48;1718976;83;21465;-81
2022/02/10 09:11:25;;;;;;;67.30;34.27;;;;;;;2.17;84.78;98609.28;1704812;83;21006;-81
2022/02/10 10:02:06;;;;;;;51.15;26.10;;;;;;;3.87;80.28;98547.27;1708806;83;21058;-78
2022/02/10 10:04:42;;;;;;;51.20;27.22;;;;;;;3.99;79.06;98540.80;1704036;84;21497;-80
2022/02/10 10:07:33;;;;;;;45.70;26.23;;;;;;;4.10;79.94;98532.97;1706249;84;21430;-81
2022/02/10 10:09:57;;;;;;;45.92;26.87;;;;;;;4.21;79.63;98526.47;1704482;84;21471;-81
2022/02/10 10:12:40;;;;;;;44.95;24.47;;;;;;;4.29;78.99;98530.44;1706360;84;20982;-81
2022/02/10 10:17:32;;;;;;;46.65;25.25;;;;;;;4.45;77.52;98519.12;1707072;84;21076;-81
2022/02/10 10:20:13;;;;;;;43.85;25.20;;;;;;;4.57;77.35;98516.98;1695254;84;21477;-81
2022/02/10 10:51:15;;;;;;;48.23;26.65;;;;;;;5.79;72.31;98489.45;1696481;83;21099;-81
2022/02/10 10:56:09;;;;;;;46.77;25.32;;;;;;;5.99;72.58;98469.67;1683903;83;21037;-82
2022/02/10 11:07:42;;;;;;;39.75;25.02;;;;;;;9.48;65.67;98456.86;1678938;84;21057;-82
2022/02/10 11:38:27;;;;;;;24.87;18.57;;;;;;;17.96;41.64;98394.59;1693741;85;21063;-81
2022/02/10 11:41:41;;;;;;;26.17;18.12;;;;;;;18.67;39.25;98392.55;1691818;84;21048;-81
2022/02/10 11:43:43;;;;;;;23.83;17.87;;;;;;;18.77;40.68;98379.45;1679398;85;21041;-82
2022/02/10 12:42:13;;;;;;;21.15;15.00;;;;;;;19.92;34.15;98308.18;1711778;83;20985;-81
2022/02/10 13:31:46;;;;;;;15.63;11.43;;;;;;;15.03;43.99;98281.43;1724158;83;20989;-81
2022/02/10 14:09:27;;;;;;;7.45;5.97;;;;;;;13.36;44.77;98253.27;1673692;85;21037;-81
2022/02/10 14:14:44;;;;;;;8.70;5.72;;;;;;;12.38;47.27;98255.30;1619692;88;21060;-82
2022/02/10 14:17:11;;;;;;;8.13;5.67;;;;;;;11.98;47.59;98259.61;1619961;89;21084;-82
2022/02/10 14:19:41;;;;;;;8.40;5.58;;;;;;;11.65;48.28;98256.18;1620999;86;22272;-83
2022/02/10 14:22:26;;;;;;;10.23;6.28;;;;;;;11.22;49.32;98248.09;1714522;84;21005;-82
2022/02/10 14:27:25;;;;;;;9.33;4.83;;;;;;;10.71;50.46;98236.68;1714858;83;20980;-82
2022/02/10 14:29:51;;;;;;;14.15;5.65;;;;;;;10.49;51.49;98237.22;1714779;84;21019;-82
2022/02/10 14:32:24;;;;;;;7.83;4.72;;;;;;;10.28;51.90;98246.97;1695236;83;21037;-82
2022/02/10 14:34:48;;;;;;;7.62;4.80;;;;;;;10.11;52.24;98245.17;1679760;84;21022;-82
2022/02/10 15:29:36;;;;;;;18.73;7.85;;;;;;;7.83;58.42;98263.91;1708793;83;21032;-82
2022/02/10 15:53:21;;;;;;;28.55;14.65;;;;;;;6.82;61.97;98246.67;1682318;84;21021;-81
2022/02/10 16:14:52;;;;;;;35.40;20.15;;;;;;;6.01;64.59;98256.09;1689052;84;20989;-81
2022/02/10 16:17:05;;;;;;;33.38;19.35;;;;;;;5.89;65.08;98252.22;1682536;84;21030;-82
2022/02/10 16:19:35;;;;;;;32.38;18.92;;;;;;;5.79;65.22;98251.41;1672306;85;21036;-81
2022/02/10 16:22:11;;;;;;;40.75;20.02;;;;;;;5.68;65.91;98245.78;1672559;85;21471;-82
2022/02/10 16:24:36;;;;;;;36.48;20.90;;;;;;;5.60;65.56;98246.26;1684945;84;21044;-81
2022/02/10 16:27:18;;;;;;;40.43;21.05;;;;;;;5.49;65.70;98238.88;1679909;84;21570;-81
2022/02/10 16:29:43;;;;;;;36.98;20.72;;;;;;;5.39;65.91;98234.09;1683184;84;21005;-82
2022/02/10 16:32:10;;;;;;;35.58;19.77;;;;;;;5.31;66.46;98233.27;1700023;84;20974;-81
2022/02/10 16:34:40;;;;;;;35.25;20.65;;;;;;;5.23;66.73;98241.20;1699001;84;21513;-81
2022/02/10 16:37:12;;;;;;;38.38;20.35;;;;;;;5.15;66.67;98235.51;1700936;84;21090;-81
2022/02/10 16:39:40;;;;;;;38.73;20.77;;;;;;;5.06;67.37;98226.34;1699323;84;21041;-81
2022/02/10 16:42:12;;;;;;;38.60;21.05;;;;;;;4.97;67.70;98234.25;1701070;84;21047;-82
2022/02/10 16:44:40;;;;;;;36.98;19.67;;;;;;;4.87;67.84;98238.22;1701198;84;21393;-82
2022/02/10 16:47:14;;;;;;;37.35;20.45;;;;;;;4.78;67.81;98225.56;1690626;84;21009;-82
2022/02/10 16:49:45;;;;;;;34.90;21.05;;;;;;;4.69;68.14;98224.70;1678269;84;21061;-82
2022/02/10 16:52:08;;;;;;;42.23;21.20;;;;;;;4.61;68.15;98220.78;1690791;84;21112;-82
2022/02/10 16:54:40;;;;;;;42.00;22.00;;;;;;;4.54;68.37;98223.00;1687920;84;21753;-82
2022/02/10 17:00:03;;;;;;;41.05;22.52;;;;;;;4.40;68.62;98216.43;1693697;84;21032;-82
2022/02/10 17:19:02;;;;;;;38.42;21.35;;;;;;;3.85;71.02;98220.80;1690627;84;21080;-81
2022/02/10 17:26:35;;;;;;;46.60;22.73;;;;;;;3.65;70.76;98232.59;1679489;84;22226;-81
2022/02/10 17:28:51;;;;;;;41.02;23.05;;;;;;;3.56;71.25;98226.88;1681890;84;21024;-82
2022/02/10 17:34:22;;;;;;;43.68;23.92;;;;;;;3.46;71.05;98230.34;1660166;86;21083;-82
2022/02/10 17:36:49;;;;;;;46.98;24.12;;;;;;;3.38;71.01;98239.48;1687130;84;21083;-82
2022/02/10 17:42:19;;;;;;;49.63;25.12;;;;;;;3.28;71.63;98236.84;1678521;84;21000;-82
2022/02/10 17:44:52;;;;;;;45.67;23.73;;;;;;;3.19;71.80;98228.94;1657007;86;21053;-82
2022/02/10 17:52:35;;;;;;;47.17;23.73;;;;;;;3.02;71.98;98227.14;1687659;85;21064;-83
2022/02/10 17:54:59;;;;;;;45.55;24.25;;;;;;;2.96;72.29;98224.50;1691152;84;20990;-82
2022/02/10 17:57:27;;;;;;;51.08;25.50;;;;;;;2.93;72.87;98226.20;1660084;86;21037;-82
2022/02/10 17:59:53;;;;;;;47.27;25.08;;;;;;;2.89;72.57;98230.13;1681428;84;21447;-82
2022/02/10 18:02:20;;;;;;;42.35;23.85;;;;;;;2.88;72.65;98231.00;1660821;86;21044;-82
2022/02/10 18:04:46;;;;;;;54.15;25.40;;;;;;;2.87;72.81;98233.16;1658471;86;21064;-81
2022/02/10 18:07:13;;;;;;;45.90;25.25;;;;;;;2.85;73.02;98234.02;1685997;84;21462;-82
2022/02/10 18:10:49;;;;;;;51.88;25.80;;;;;;;2.84;73.32;98236.20;1689610;84;20977;-82
2022/02/10 18:15:00;;;;;;;52.53;24.43;;;;;;;2.92;74.84;98238.86;1698801;83;21013;-82
2022/02/10 18:17:32;;;;;;;47.80;24.32;;;;;;;2.95;81.59;98237.58;1718351;82;21589;-83
2022/02/10 18:20:04;;;;;;;50.95;23.25;;;;;;;2.96;79.05;98230.16;1721850;82;21434;-82
2022/02/10 18:28:18;;;;;;;38.60;19.00;;;;;;;2.92;79.10;98242.78;1712361;83;21029;-81
2022/02/10 19:06:02;;;;;;;41.25;23.18;;;;;;;1.79;80.72;98224.97;1694000;83;21532;-82
2022/02/10 19:08:43;;;;;;;46.77;22.10;;;;;;;1.73;77.38;98221.45;1695642;83;21028;-82
2022/02/10 19:10:57;;;;;;;43.80;23.75;;;;;;;1.66;76.76;98220.51;1720376;82;21121;-82
2022/02/10 19:13:23;;;;;;;53.10;25.60;;;;;;;1.60;76.51;98217.81;1701921;83;22263;-83
2022/02/10 19:15:54;;;;;;;46.92;26.48;;;;;;;1.54;76.59;98223.42;1693233;85;21465;-82
2022/02/10 19:18:19;;;;;;;53.75;26.52;;;;;;;1.47;76.58;98227.27;1695539;83;21056;-82
2022/02/10 19:20:47;;;;;;;53.05;27.15;;;;;;;1.39;79.33;98213.70;1693372;85;20999;-82
2022/02/10 19:23:13;;;;;;;54.53;28.90;;;;;;;1.35;77.04;98219.75;1709238;83;21524;-82
2022/02/10 19:25:40;;;;;;;53.02;27.02;;;;;;;1.28;77.05;98217.91;1723856;83;20968;-82
2022/02/10 19:28:11;;;;;;;50.52;26.70;;;;;;;1.23;76.86;98215.27;1723642;83;21024;-82
2022/02/10 19:30:39;;;;;;;64.30;30.68;;;;;;;1.19;77.02;98213.47;1713616;83;21023;-82
2022/02/10 19:33:12;;;;;;;51.10;28.38;;;;;;;1.13;80.34;98206.43;1693393;85;21021;-83
2022/02/10 19:35:52;;;;;;;53.35;28.50;;;;;;;1.08;78.22;98196.37;1716967;83;21024;-82
2022/02/10 19:38:10;;;;;;;54.73;28.30;;;;;;;1.03;77.94;98198.94;1724259;83;21123;-82
2022/02/10 19:40:39;;;;;;;54.63;27.95;;;;;;;1.00;77.91;98198.03;1725181;83;21036;-82
2022/02/10 19:43:06;;;;;;;56.45;27.73;;;;;;;0.99;78.08;98194.53;1694669;84;21032;-82
2022/02/10 19:45:33;;;;;;;70.17;33.73;;;;;;;0.98;78.31;98195.81;1694924;84;21079;-83
2022/02/10 19:48:04;;;;;;;60.63;30.45;;;;;;;0.97;78.83;98204.09;1696023;83;21072;-82
2022/02/10 19:50:34;;;;;;;64.95;31.42;;;;;;;0.96;79.12;98197.13;1720293;83;20972;-83
2022/02/10 19:53:05;;;;;;;60.58;32.60;;;;;;;0.97;79.63;98195.37;1693472;85;21071;-83
2022/02/10 19:55:33;;;;;;;67.25;32.28;;;;;;;1.02;79.73;98184.55;1693919;84;21072;-83
2022/02/10 19:58:07;;;;;;;68.15;33.02;;;;;;;1.01;79.67;98186.73;1694787;85;21001;-83
2022/02/10 20:00:35;;;;;;;59.48;32.05;;;;;;;1.04;80.30;98188.08;1682032;85;21089;-78
2022/02/10 20:03:00;;;;;;;65.47;32.85;;;;;;;1.04;80.15;98197.21;1714758;83;21036;-81
2022/02/10 20:05:27;;;;;;;61.77;33.42;;;;;;;1.03;80.29;98198.94;1693083;84;21454;-83
2022/02/10 20:07:55;;;;;;;60.78;31.75;;;;;;;1.01;79.94;98201.08;1711213;83;21395;-82
2022/02/10 20:10:23;;;;;;;65.47;33.00;;;;;;;0.96;79.73;98205.37;1720035;83;21040;-81
2022/02/10 20:12:50;;;;;;;67.05;33.63;;;;;;;0.96;79.75;98200.15;1684598;84;20985;-81
2022/02/10 20:15:17;;;;;;;78.55;41.42;;;;;;;0.89;79.47;98196.58;1700223;83;21390;-81
2022/02/10 20:17:44;;;;;;;73.47;36.75;;;;;;;0.83;80.31;98198.67;1714071;83;21445;-81
2022/02/10 20:20:11;;;;;;;72.00;36.70;;;;;;;0.73;83.52;98200.72;1721934;83;21305;-81
2022/02/10 20:22:38;;;;;;;67.12;34.05;;;;;;;0.69;80.58;98196.31;1721858;83;21457;-81
2022/02/10 20:25:07;;;;;;;68.60;33.48;;;;;;;0.68;80.38;98191.55;1722509;83;21000;-81
2022/02/10 20:27:36;;;;;;;69.07;34.85;;;;;;;0.62;80.76;98188.41;1712971;83;21485;-79
2022/02/10 20:30:06;;;;;;;74.05;36.13;;;;;;;0.62;80.04;98187.11;1693281;85;21064;-81
2022/02/10 20:32:33;;;;;;;69.80;33.53;;;;;;;0.57;79.92;98177.46;1696782;83;21119;-81
2022/02/10 20:35:01;;;;;;;79.58;39.98;;;;;;;0.54;79.87;98170.47;1726438;83;21008;-80
2022/02/10 20:37:28;;;;;;;68.22;34.78;;;;;;;0.51;80.43;98167.39;1726558;83;21071;-81
2022/02/10 20:39:55;;;;;;;71.12;34.10;;;;;;;0.47;79.80;98170.84;1726358;83;21009;-82
2022/02/10 20:42:22;;;;;;;67.35;34.40;;;;;;;0.41;79.61;98163.36;1726531;83;21468;-80
2022/02/10 20:44:53;;;;;;;70.25;35.05;;;;;;;0.39;79.79;98161.61;1721528;83;21060;-81
2022/02/10 20:47:19;;;;;;;62.98;34.25;;;;;;;0.34;79.89;98157.18;1699500;82;22224;-81
2022/02/10 20:49:46;;;;;;;66.12;36.13;;;;;;;0.28;79.73;98152.75;1694518;85;21028;-80
2022/02/10 20:52:15;;;;;;;77.30;39.08;;;;;;;0.22;79.54;98154.86;1698794;83;21461;-80
2022/02/10 20:54:42;;;;;;;79.32;39.05;;;;;;;0.14;79.67;98152.55;1694515;84;21020;-79
2022/02/10 20:57:09;;;;;;;78.65;42.10;;;;;;;0.12;80.00;98152.53;1694727;84;21059;-80
2022/02/10 20:59:39;;;;;;;73.83;37.65;;;;;;;0.12;80.11;98149.92;1694519;85;21490;-80
2022/02/10 21:02:13;;;;;;;79.03;41.02;;;;;;;0.10;80.04;98145.54;1694799;84;21004;-80
2022/02/10 21:04:43;;;;;;;72.20;35.03;;;;;;;0.07;79.63;98150.70;1695930;83;21461;-79
2022/02/10 21:07:19;;;;;;;60.05;30.70;;;;;;;-0.01;79.79;98136.25;1695583;83;21028;-80
2022/02/10 21:12:22;;;;;;;52.50;27.62;;;;;;;-0.10;80.79;98143.92;1686998;85;21036;-80
2022/02/10 21:14:49;;;;;;;52.78;27.87;;;;;;;-0.15;81.12;98145.17;1654085;86;21408;-79
2022/02/10 21:17:22;;;;;;;61.68;29.02;;;;;;;-0.14;80.67;98142.59;1654107;87;20989;-80
2022/02/10 21:19:44;;;;;;;51.37;27.65;;;;;;;-0.18;83.79;98143.39;1653499;86;21439;-79
2022/02/10 21:22:14;;;;;;;50.00;28.23;;;;;;;-0.22;80.93;98152.42;1638012;87;21043;-81
2022/02/10 21:24:44;;;;;;;62.15;29.72;;;;;;;-0.25;81.09;98148.03;1639100;87;21060;-78
2022/02/10 21:29:53;;;;;;;60.88;30.08;;;;;;;-0.29;81.46;98148.42;1632966;87;21454;-79
2022/02/10 21:32:14;;;;;;;62.10;31.95;;;;;;;-0.33;81.75;98150.96;1651011;87;21010;-80
2022/02/10 21:34:59;;;;;;;62.10;31.90;;;;;;;-0.33;82.16;98154.87;1636602;88;21329;-79
2022/02/10 21:37:12;;;;;;;64.35;30.95;;;;;;;-0.35;83.00;98140.52;1653723;85;21026;-79
2022/02/10 21:47:50;;;;;;;58.90;30.62;;;;;;;-0.36;83.19;98151.79;1636705;88;21008;-79
2022/02/10 21:53:15;;;;;;;64.47;31.20;;;;;;;-0.41;82.66;98150.84;1636601;88;21064;-80
2022/02/10 22:06:17;;;;;;;;;;;;;;;-0.52;81.85;98138.03;1627797;88;21020;-79
2022/02/10 22:11:25;;;;;;;52.55;28.65;;;;;;;-0.60;81.62;98153.53;1671137;85;21011;-79
2022/02/10 22:16:47;;;;;;;56.68;29.87;;;;;;;-0.68;81.57;98150.38;1680903;85;21023;-80
2022/02/10 22:19:19;;;;;;;;;;;;;;;-0.71;83.32;98146.85;1656100;84;20997;-79
2022/02/10 22:21:32;;;;;;;62.17;30.52;;;;;;;-0.78;82.07;98143.26;1630746;87;20363;-79
2022/02/10 22:23:58;;;;;;;69.72;36.38;;;;;;;-0.82;81.91;98155.31;1653819;85;21057;-78
2022/02/10 22:26:29;;;;;;;66.02;35.25;;;;;;;-0.84;82.08;98150.92;1653834;86;21390;-79
2022/02/10 22:29:09;;;;;;;66.60;34.65;;;;;;;-0.84;81.99;98149.63;1660452;86;21477;-80
2022/02/10 22:31:48;;;;;;;79.77;37.25;;;;;;;-0.85;81.96;98146.58;1662690;85;21028;-81
2022/02/10 22:34:29;;;;;;;72.65;37.08;;;;;;;-0.84;83.15;98149.63;1700203;83;20969;-79
2022/02/10 22:36:54;;;;;;;69.42;35.03;;;;;;;-0.86;85.28;98150.03;1694895;83;20976;-81
2022/02/10 22:39:17;;;;;;;67.95;34.60;;;;;;;-0.88;83.35;98143.50;1697012;84;20989;-80
2022/02/10 22:41:46;;;;;;;70.67;35.35;;;;;;;-0.87;83.47;98149.59;1698002;83;21491;-80
2022/02/10 22:44:11;;;;;;;69.45;34.33;;;;;;;-0.89;83.44;98143.05;1696013;84;21267;-80
2022/02/10 22:46:38;;;;;;;69.55;34.67;;;;;;;-0.94;83.47;98144.28;1695974;85;21016;-80
2022/02/10 22:49:06;;;;;;;69.70;35.08;;;;;;;-0.92;83.19;98144.73;1694326;83;20961;-79
2022/02/10 22:51:34;;;;;;;68.17;35.10;;;;;;;-0.93;82.98;98143.84;1704842;83;21105;-80
2022/02/10 22:54:04;;;;;;;67.78;33.83;;;;;;;-0.94;82.95;98139.08;1703731;83;21049;-80
2022/02/10 22:56:31;;;;;;;66.60;35.55;;;;;;;-0.94;82.79;98140.38;1696789;83;21017;-80
2022/02/10 22:59:05;;;;;;;64.40;34.78;;;;;;;-0.97;82.71;98144.21;1699765;84;21040;-80
2022/02/10 23:01:34;;;;;;;68.92;34.05;;;;;;;-0.99;82.91;98138.52;1712015;84;21485;-80
2022/02/10 23:04:01;;;;;;;67.10;33.80;;;;;;;-0.99;82.87;98144.59;1713575;84;21402;-80
2022/02/10 23:06:27;;;;;;;73.42;36.20;;;;;;;-1.00;84.07;98144.14;1709937;84;22205;-80
2022/02/10 23:08:55;;;;;;;69.53;36.50;;;;;;;-1.03;83.33;98143.21;1714617;83;21004;-80
2022/02/10 23:11:30;;;;;;;64.55;34.27;;;;;;;-1.04;83.77;98146.23;1714132;84;21080;-80
2022/02/10 23:13:59;;;;;;;71.87;34.70;;;;;;;-1.07;83.23;98142.28;1720875;82;20964;-80
2022/02/10 23:16:28;;;;;;;66.35;34.73;;;;;;;-1.04;83.12;98147.97;1722040;83;21431;-80
2022/02/10 23:18:55;;;;;;;73.02;35.92;;;;;;;-1.07;83.22;98140.98;1722110;83;21024;-79
2022/02/10 23:21:23;;;;;;;75.03;34.03;;;;;;;-1.08;83.00;98132.73;1738087;82;21066;-80
2022/02/10 23:23:51;;;;;;;68.97;33.23;;;;;;;-1.08;82.99;98144.44;1732121;82;20972;-80
2022/02/10 23:26:21;;;;;;;67.00;34.13;;;;;;;-1.11;83.30;98149.16;1720520;83;21016;-79
2022/02/10 23:28:52;;;;;;;71.70;35.25;;;;;;;-1.13;83.07;98141.73;1679795;84;21454;-80
2022/02/10 23:31:22;;;;;;;62.03;32.40;;;;;;;-1.11;83.15;98149.56;1719962;83;21008;-79
2022/02/10 23:34:01;;;;;;;64.40;33.53;;;;;;;-1.13;83.23;98143.47;1713328;83;20976;-80
2022/02/10 23:36:45;;;;;;;67.22;31.65;;;;;;;-1.13;83.22;98140.87;1720373;83;21008;-80
2022/02/10 23:39:18;;;;;;;71.97;33.85;;;;;;;-1.11;83.08;98145.67;1721810;83;21015;-80
2022/02/10 23:44:26;;;;;;;61.25;31.73;;;;;;;-1.18;82.97;98150.28;1721256;83;21004;-80
2022/02/10 23:46:46;;;;;;;66.55;32.67;;;;;;;-1.18;82.93;98149.87;1705620;83;21403;-81
2022/02/10 23:49:18;;;;;;;63.85;33.15;;;;;;;-1.21;82.79;98143.29;1708214;83;21047;-80
2022/02/10 23:51:56;;;;;;;61.77;30.75;;;;;;;-1.22;82.85;98146.75;1709834;83;21036;-78
2022/02/10 23:54:16;;;;;;;65.08;32.15;;;;;;;-1.27;82.74;98154.47;1720801;83;20996;-82
2022/02/10 23:56:49;;;;;;;65.62;33.67;;;;;;;-1.29;82.93;98148.78;1706522;83;21079;-83
2022/02/10 23:59:20;;;;;;;71.15;32.60;;;;;;;-1.31;82.93;98145.26;1719689;83;20997;-83
